Time;durP1;ratioP1;P1;durP2;ratioP2;P2;SDS_P1;SDS_P2;PMS_P1;PMS_P2;Temp;Humidity;BMP_temperature;BMP_pressure;BME280_temperature;BME280_humidity;BME280_pressure;Samples;Min_cycle;Max_cycle;Signal;HPM_P1;HPM_P2
2023/04/25 00:00:54;;;;;;;4.18;1.95;;;9.40;99.90;;;9.42;100.00;100408.59;5164960;28;20436;-85
2023/04/25 00:03:26;;;;;;;4.25;1.85;;;9.40;99.90;;;9.44;100.00;100406.94;5166568;28;20741;-84
2023/04/25 00:06:01;;;;;;;4.00;2.10;;;9.40;99.90;;;9.44;100.00;100414.75;5165491;28;20051;-84
2023/04/25 00:08:34;;;;;;;3.50;1.92;;;9.50;99.90;;;9.42;100.00;100411.22;5165765;28;20058;-83
2023/04/25 00:11:07;;;;;;;3.33;1.90;;;9.40;99.90;;;9.42;100.00;100416.41;5158510;28;20046;-83
2023/04/25 00:13:41;;;;;;;3.50;2.25;;;9.50;99.90;;;9.42;100.00;100421.63;5151068;28;20042;-82
2023/04/25 00:16:15;;;;;;;5.10;2.25;;;9.40;99.90;;;9.39;100.00;100416.31;5157408;28;20413;-82
2023/04/25 00:18:51;;;;;;;5.47;2.72;;;9.40;99.90;;;9.37;100.00;100417.09;5147445;28;20047;-83
2023/04/25 00:21:24;;;;;;;4.53;2.28;;;9.40;99.90;;;9.33;100.00;100410.91;5166148;28;20458;-82
2023/04/25 00:23:56;;;;;;;4.97;2.22;;;9.30;99.90;;;9.31;100.00;100417.75;5151101;28;20054;-82
2023/04/25 00:26:30;;;;;;;5.03;3.10;;;9.30;99.90;;;9.23;100.00;100407.09;5157608;28;20405;-82
2023/04/25 00:29:02;;;;;;;6.88;2.38;;;9.30;99.90;;;9.23;100.00;100421.81;5165548;28;20041;-82
2023/04/25 00:31:34;;;;;;;7.18;2.60;;;9.30;99.90;;;9.20;100.00;100419.13;5149172;28;20047;-82
2023/04/25 00:34:07;;;;;;;6.30;2.53;;;9.20;99.90;;;9.16;100.00;100425.06;5154186;28;20045;-81
2023/04/25 00:36:41;;;;;;;7.38;2.42;;;9.20;99.90;;;9.12;100.00;100425.75;5154398;28;20109;-83
2023/04/25 00:39:13;;;;;;;4.10;2.28;;;9.20;99.90;;;9.12;100.00;100424.06;5158721;28;20101;-82
2023/04/25 00:41:47;;;;;;;5.03;2.45;;;9.20;99.90;;;9.13;100.00;100419.75;5157460;28;20054;-82
2023/04/25 00:44:21;;;;;;;4.80;2.15;;;9.20;99.90;;;9.14;100.00;100429.31;5166737;28;20058;-82
2023/04/25 00:46:54;;;;;;;3.22;1.98;;;9.20;99.90;;;9.14;100.00;100422.41;5168581;28;20035;-82
2023/04/25 00:49:27;;;;;;;2.65;1.85;;;9.10;99.90;;;9.13;100.00;100427.56;5159637;28;20065;-82
2023/04/25 00:51:59;;;;;;;4.80;2.05;;;9.20;99.90;;;9.09;100.00;100425.69;5155148;28;20125;-82
2023/04/25 00:54:31;;;;;;;4.20;2.38;;;9.10;99.90;;;9.02;100.00;100423.69;5149814;28;20046;-83
2023/04/25 00:57:05;;;;;;;3.75;2.17;;;9.10;99.90;;;8.96;100.00;100425.25;5150823;28;20047;-82
2023/04/25 00:59:38;;;;;;;3.60;1.80;;;9.00;99.90;;;8.90;100.00;100414.63;5158471;28;20059;-82
2023/04/25 01:02:10;;;;;;;4.40;2.33;;;8.90;99.90;;;8.86;100.00;100422.25;5142069;28;20438;-83
2023/04/25 01:04:43;;;;;;;5.97;2.10;;;8.90;99.90;;;8.80;100.00;100422.94;5157666;28;20473;-82
2023/04/25 01:07:15;;;;;;;4.65;2.15;;;8.80;99.90;;;8.75;100.00;100419.28;5166005;28;20046;-81
2023/04/25 01:09:48;;;;;;;3.83;2.08;;;8.80;99.90;;;8.71;100.00;100412.19;5164599;28;20109;-81
2023/04/25 01:12:21;;;;;;;4.03;2.30;;;8.70;99.90;;;8.69;100.00;100413.88;5158264;28;20061;-82
2023/04/25 01:14:53;;;;;;;6.78;2.38;;;8.70;99.90;;;8.65;100.00;100422.38;5164654;28;20050;-80
2023/04/25 01:17:27;;;;;;;4.15;1.95;;;8.70;99.90;;;8.62;100.00;100417.97;5164727;28;20061;-82
2023/04/25 01:19:59;;;;;;;4.38;1.88;;;8.60;99.90;;;8.59;100.00;100412.63;5168641;28;20046;-90
2023/04/25 01:22:32;;;;;;;3.92;1.90;;;8.60;99.90;;;8.54;100.00;100418.47;5163918;28;20154;-84
2023/04/25 01:25:06;;;;;;;4.18;2.05;;;8.60;99.90;;;8.50;100.00;100411.44;5167295;28;20053;-82
2023/04/25 01:27:38;;;;;;;3.92;2.33;;;8.50;99.90;;;8.45;100.00;100411.25;5168961;28;20142;-82
2023/04/25 01:30:11;;;;;;;3.25;2.20;;;8.50;99.90;;;8.39;100.00;100419.69;5168773;28;20054;-82
2023/04/25 01:32:45;;;;;;;4.40;2.58;;;8.40;99.90;;;8.38;100.00;100420.53;5155762;28;20050;-81
2023/04/25 01:35:17;;;;;;;6.05;2.20;;;8.40;99.90;;;8.35;100.00;100416.91;5151783;28;20049;-82
2023/04/25 01:37:52;;;;;;;5.93;2.30;;;8.40;99.90;;;8.32;100.00;100416.78;5168041;28;20047;-82
2023/04/25 01:40:25;;;;;;;5.68;2.40;;;8.40;99.90;;;8.31;100.00;100425.41;5159243;28;20142;-83
2023/04/25 01:42:58;;;;;;;3.78;2.08;;;8.30;99.90;;;8.28;100.00;100431.38;5175870;28;20055;-84
2023/04/25 01:45:30;;;;;;;5.95;2.28;;;8.30;99.90;;;8.27;100.00;100432.16;5158801;28;20070;-83
2023/04/25 01:48:02;;;;;;;4.68;2.47;;;8.30;99.90;;;8.25;100.00;100435.56;5157640;28;20085;-83
2023/04/25 01:50:34;;;;;;;8.73;3.25;;;8.30;99.90;;;8.22;100.00;100436.34;5156242;28;20090;-83
2023/04/25 01:53:10;;;;;;;5.00;2.35;;;8.30;99.90;;;8.19;100.00;100441.38;5155580;28;20035;-83
2023/04/25 01:55:42;;;;;;;7.20;2.95;;;8.30;99.90;;;8.17;100.00;100432.66;5156971;28;20042;-83
2023/04/25 01:58:17;;;;;;;4.10;1.92;;;8.20;99.90;;;8.16;100.00;100446.47;5141930;28;20246;-83
2023/04/25 02:01:11;;;;;;;7.53;3.10;;;8.20;99.90;;;8.15;100.00;100445.59;5150891;28;20133;-82
2023/04/25 02:03:50;;;;;;;4.03;2.30;;;8.20;99.90;;;8.14;100.00;100442.91;5167518;28;20043;-82
2023/04/25 02:06:32;;;;;;;4.53;2.30;;;8.20;99.90;;;8.15;100.00;100442.13;5148238;28;20042;-82
2023/04/25 02:09:05;;;;;;;4.60;2.20;;;8.20;99.90;;;8.18;100.00;100450.00;5145521;28;20050;-82
2023/04/25 02:11:38;;;;;;;6.13;2.33;;;8.20;99.90;;;8.19;100.00;100446.59;5172963;28;20481;-82
2023/04/25 02:14:36;;;;;;;3.80;2.03;;;8.20;99.90;;;8.20;100.00;100448.34;5131616;28;20043;-83
2023/04/25 02:17:18;;;;;;;7.05;2.42;;;8.20;99.90;;;8.22;100.00;100459.69;5165289;28;20055;-82
2023/04/25 02:19:51;;;;;;;3.78;1.92;;;8.30;99.90;;;8.22;100.00;100446.72;5173326;28;20062;-83
2023/04/25 02:22:23;;;;;;;5.03;2.00;;;8.30;99.90;;;8.23;100.00;100450.19;5149537;28;20057;-83
2023/04/25 02:24:57;;;;;;;7.18;2.30;;;8.20;99.90;;;8.20;100.00;100450.94;5148037;28;20054;-85
2023/04/25 02:27:29;;;;;;;4.25;2.20;;;8.30;99.90;;;8.17;100.00;100443.06;5149365;28;20081;-86
2023/04/25 02:30:02;;;;;;;4.93;2.35;;;8.30;99.90;;;8.12;100.00;100439.38;5149871;28;20097;-83
2023/04/25 02:32:35;;;;;;;5.82;2.08;;;8.20;99.90;;;8.06;100.00;100444.34;5150453;28;20567;-83
2023/04/25 02:35:09;;;;;;;3.65;1.90;;;8.10;99.90;;;8.02;100.00;100452.81;5167049;28;20093;-82
2023/04/25 02:37:42;;;;;;;6.28;2.53;;;8.10;99.90;;;7.97;100.00;100447.47;5158957;28;20046;-83
2023/04/25 02:40:16;;;;;;;7.45;2.67;;;8.10;99.90;;;7.92;100.00;100461.06;5166214;28;20045;-83
2023/04/25 02:42:48;;;;;;;5.10;2.30;;;8.00;99.90;;;7.88;100.00;100449.66;5150368;28;20059;-81
2023/04/25 02:45:20;;;;;;;5.85;2.78;;;7.90;99.90;;;7.85;100.00;100453.03;5158620;28;20813;-82
2023/04/25 02:47:52;;;;;;;4.40;2.30;;;7.90;99.90;;;7.83;100.00;100441.72;5174799;28;20324;-83
2023/04/25 02:50:25;;;;;;;4.50;2.60;;;7.90;99.90;;;7.82;100.00;100455.53;5166610;28;20130;-85
2023/04/25 02:52:57;;;;;;;5.72;2.10;;;7.90;99.90;;;7.82;100.00;100455.53;5157874;28;20047;-83
2023/04/25 02:55:36;;;;;;;4.40;2.20;;;7.90;99.90;;;7.81;100.00;100453.72;5158747;28;20054;-82
2023/04/25 02:58:10;;;;;;;4.30;2.00;;;7.90;99.90;;;7.84;100.00;100453.00;5165798;28;20039;-85
2023/04/25 03:00:54;;;;;;;6.55;2.60;;;7.90;99.90;;;7.84;100.00;100453.88;5158001;28;20527;-83
2023/04/25 03:03:26;;;;;;;5.70;2.50;;;7.90;99.90;;;7.84;100.00;100442.59;5165728;28;20051;-82
2023/04/25 03:05:58;;;;;;;2.55;1.90;;;7.90;99.90;;;7.85;100.00;100449.56;5146840;28;20047;-82
2023/04/25 03:08:35;;;;;;;5.53;2.17;;;7.90;99.90;;;7.83;100.00;100441.72;5150007;28;20050;-84
2023/04/25 03:11:09;;;;;;;5.18;2.00;;;7.90;99.90;;;7.82;100.00;100450.34;5174513;28;20141;-82
2023/04/25 03:13:41;;;;;;;6.85;2.78;;;7.90;99.90;;;7.79;100.00;100450.19;5150711;28;20078;-83
2023/04/25 03:16:15;;;;;;;7.38;2.35;;;7.90;99.90;;;7.78;100.00;100448.44;5157490;28;20049;-83
2023/04/25 03:18:47;;;;;;;5.53;2.60;;;7.80;99.90;;;7.78;100.00;100458.81;5150535;28;20067;-82
2023/04/25 03:21:19;;;;;;;5.30;2.35;;;7.80;99.90;;;7.76;100.00;100449.19;5149420;28;20501;-82
2023/04/25 03:23:51;;;;;;;4.30;2.08;;;7.80;99.90;;;7.74;100.00;100449.13;5150780;28;20058;-84
2023/04/25 03:26:25;;;;;;;4.25;2.17;;;7.80;99.90;;;7.75;100.00;100458.66;5149480;28;20070;-81
2023/04/25 03:28:57;;;;;;;4.70;2.25;;;7.80;99.90;;;7.75;100.00;100452.59;5148920;28;20074;-82
2023/04/25 03:31:30;;;;;;;7.65;3.13;;;7.80;99.90;;;7.76;100.00;100452.69;5152383;28;20053;-82
2023/04/25 03:34:02;;;;;;;6.53;2.42;;;7.80;99.90;;;7.74;100.00;100451.72;5161641;28;20074;-83
2023/04/25 03:36:34;;;;;;;5.18;2.65;;;7.80;99.90;;;7.72;100.00;100443.00;5154246;28;20509;-82
2023/04/25 03:39:07;;;;;;;5.45;2.90;;;7.80;99.90;;;7.80;100.00;100451.97;5154390;28;20045;-83
2023/04/25 03:41:40;;;;;;;5.90;2.30;;;7.90;99.90;;;7.84;100.00;100453.00;5155907;28;20079;-83
2023/04/25 03:44:18;;;;;;;3.38;2.22;;;7.90;99.90;;;7.85;100.00;100446.97;5156341;28;20050;-82
2023/04/25 03:46:50;;;;;;;5.43;2.25;;;7.90;99.90;;;7.84;100.00;100448.69;5170998;28;20082;-83
2023/04/25 03:49:22;;;;;;;5.03;2.45;;;7.90;99.90;;;7.86;100.00;100454.81;5151885;28;20051;-82
2023/04/25 03:52:06;;;;;;;5.05;2.33;;;7.90;99.90;;;7.87;100.00;100458.28;5167802;28;20061;-82
2023/04/25 03:54:44;;;;;;;6.15;2.42;;;7.90;99.90;;;7.88;100.00;100449.66;5167917;28;20055;-82
2023/04/25 03:57:21;;;;;;;4.65;2.08;;;7.90;99.90;;;7.91;100.00;100456.72;5152359;28;20102;-82
2023/04/25 03:59:53;;;;;;;5.60;2.15;;;8.00;99.90;;;7.93;100.00;100462.84;5175617;28;20050;-82
2023/04/25 04:02:26;;;;;;;4.53;1.77;;;8.00;99.90;;;7.95;100.00;100456.88;5167390;28;20045;-83
2023/04/25 04:04:59;;;;;;;3.90;2.25;;;8.00;99.90;;;7.97;100.00;100456.97;5160301;28;20051;-82
2023/04/25 04:07:32;;;;;;;4.63;2.22;;;8.00;99.90;;;7.98;100.00;100457.00;5167814;28;20042;-82
2023/04/25 04:10:07;;;;;;;3.38;2.05;;;8.10;99.90;;;8.01;100.00;100466.63;5158001;28;20057;-83
2023/04/25 04:12:44;;;;;;;5.13;2.33;;;8.00;99.90;;;8.01;100.00;100458.84;5152044;28;20077;-83
2023/04/25 04:15:17;;;;;;;5.38;2.08;;;8.10;99.90;;;8.03;100.00;100465.88;5168514;28;20046;-82
2023/04/25 04:17:50;;;;;;;5.57;2.45;;;8.10;99.90;;;8.05;100.00;100472.00;5159591;28;20043;-87
2023/04/25 04:20:24;;;;;;;3.88;1.75;;;8.10;99.90;;;8.06;100.00;100473.78;5167237;28;20503;-85
2023/04/25 04:22:56;;;;;;;4.05;1.98;;;8.10;99.90;;;8.09;100.00;100475.63;5151638;28;20053;-84
2023/04/25 04:25:29;;;;;;;4.45;1.95;;;8.20;99.90;;;8.10;100.00;100473.06;5153466;28;20113;-83
2023/04/25 04:28:22;;;;;;;3.42;1.95;;;8.20;99.90;;;8.12;100.00;100480.91;5145929;28;20075;-84
2023/04/25 04:31:16;;;;;;;4.72;2.42;;;8.20;99.90;;;8.14;100.00;100489.66;5137709;28;20050;-83
2023/04/25 04:33:49;;;;;;;4.10;2.53;;;8.20;99.90;;;8.18;100.00;100491.56;5160687;28;20047;-85
2023/04/25 04:36:22;;;;;;;4.25;2.00;;;8.20;99.90;;;8.19;100.00;100493.31;5167646;28;20131;-82
2023/04/25 04:38:56;;;;;;;5.78;2.40;;;8.20;99.90;;;8.19;100.00;100488.13;5165435;28;20082;-87
2023/04/25 04:41:42;;;;;;;5.22;2.55;;;8.30;99.90;;;8.22;100.00;100492.56;5164880;28;20043;-82
2023/04/25 04:44:19;;;;;;;6.43;2.72;;;8.30;99.90;;;8.18;100.00;100504.53;5152842;28;20413;-83
2023/04/25 04:47:13;;;;;;;8.77;2.60;;;8.20;99.90;;;8.16;100.00;100501.00;5152591;28;20079;-84
2023/04/25 04:50:00;;;;;;;8.43;3.40;;;8.20;99.90;;;8.10;100.00;100500.75;5150653;28;20162;-82
2023/04/25 04:52:48;;;;;;;6.40;2.40;;;8.20;99.90;;;8.06;100.00;100504.91;5150149;28;20402;-82
2023/04/25 04:55:38;;;;;;;5.57;2.42;;;8.20;99.90;;;8.08;100.00;100507.56;5146047;28;20050;-83
2023/04/25 04:58:34;;;;;;;6.38;3.13;;;8.20;99.90;;;8.06;100.00;100512.72;5140217;28;20524;-83
2023/04/25 05:01:28;;;;;;;8.43;2.65;;;8.20;99.90;;;8.06;100.00;100514.44;5151162;28;20054;-83
2023/04/25 05:04:21;;;;;;;5.45;2.42;;;8.20;99.90;;;8.05;100.00;100520.44;5150427;28;20074;-83
2023/04/25 05:07:11;;;;;;;7.63;2.80;;;8.20;99.90;;;8.05;100.00;100530.81;5151228;28;20071;-82
2023/04/25 05:10:12;;;;;;;7.68;3.20;;;8.10;99.90;;;8.03;100.00;100529.88;5141633;28;20441;-84
2023/04/25 05:13:08;;;;;;;8.15;2.50;;;8.10;99.90;;;8.04;100.00;100536.84;5150695;28;20157;-84
2023/04/25 05:15:42;;;;;;;10.52;3.03;;;8.10;99.90;;;8.05;100.00;100541.22;5153481;28;20051;-82
2023/04/25 05:18:51;;;;;;;7.38;3.00;;;8.20;99.90;;;8.07;100.00;100543.03;5125884;28;20047;-82
2023/04/25 05:21:38;;;;;;;;;;;8.20;99.90;;;8.10;100.00;100544.88;5165295;28;20114;-83
2023/04/25 05:24:39;;;;;;;4.93;2.30;;;8.20;99.90;;;8.17;100.00;100544.31;5137712;28;20359;-82
2023/04/25 05:27:11;;;;;;;6.65;2.63;;;8.20;99.90;;;8.21;100.00;100548.78;5152335;28;20070;-82
2023/04/25 05:29:54;;;;;;;5.53;2.50;;;8.30;99.90;;;8.27;100.00;100550.75;5159711;28;20046;-83
2023/04/25 05:32:33;;;;;;;6.80;2.90;;;8.40;99.90;;;8.30;100.00;100554.38;5172950;23;20043;-77
2023/04/25 05:35:08;;;;;;;9.57;3.00;;;8.40;99.90;;;8.27;100.00;100554.22;5138475;28;20049;-78
2023/04/25 05:37:47;;;;;;;6.75;2.90;;;8.40;99.90;;;8.29;100.00;100555.19;5143968;28;20049;-75
2023/04/25 05:40:20;;;;;;;9.52;2.67;;;8.40;99.90;;;8.33;100.00;100549.28;5143307;28;20134;-78
2023/04/25 05:43:00;;;;;;;13.98;3.60;;;8.40;99.90;;;8.36;100.00;100552.03;5144053;28;20246;-78
2023/04/25 05:45:32;;;;;;;6.75;3.17;;;8.50;99.90;;;8.36;100.00;100558.97;5145417;28;20077;-78
2023/04/25 05:48:09;;;;;;;9.00;2.78;;;8.50;99.90;;;8.39;100.00;100562.53;5144912;28;20137;-79
2023/04/25 05:50:55;;;;;;;7.20;3.05;;;8.50;99.90;;;8.47;100.00;100565.44;5143452;28;20121;-77
2023/04/25 05:53:50;;;;;;;8.40;3.05;;;8.50;99.90;;;8.54;100.00;100567.47;5156718;28;20541;-77
2023/04/25 05:56:22;;;;;;;11.70;2.88;;;8.60;99.90;;;8.60;100.00;100565.09;5143949;28;20069;-78
2023/04/25 05:58:57;;;;;;;6.90;3.00;;;8.70;99.90;;;8.63;100.00;100569.53;5144270;28;20431;-78
2023/04/25 06:01:29;;;;;;;8.05;3.08;;;8.70;99.90;;;8.68;100.00;100583.59;5143988;28;20149;-79
2023/04/25 06:04:02;;;;;;;9.23;3.28;;;8.70;99.90;;;8.74;100.00;100576.06;5143798;28;20055;-79
2023/04/25 06:06:35;;;;;;;10.35;3.25;;;8.80;99.90;;;8.75;100.00;100583.00;5159124;28;20077;-78
2023/04/25 06:09:07;;;;;;;9.00;2.92;;;8.90;99.90;;;8.82;100.00;100584.13;5142928;28;20042;-76
2023/04/25 06:11:39;;;;;;;7.93;2.60;;;8.90;99.90;;;9.03;100.00;100577.13;5143080;28;20051;-77
2023/04/25 06:14:11;;;;;;;7.30;2.67;;;9.10;99.90;;;9.22;100.00;100581.31;5151292;28;20053;-77
2023/04/25 06:16:49;;;;;;;7.03;3.50;;;9.20;99.90;;;9.36;100.00;100589.63;5143345;28;20082;-77
2023/04/25 06:19:21;;;;;;;9.60;3.83;;;9.30;99.90;;;9.56;100.00;100590.31;5142926;28;20078;-77
2023/04/25 06:21:55;;;;;;;10.93;3.25;;;9.60;99.90;;;9.72;100.00;100597.88;5158780;28;20047;-78
2023/04/25 06:24:27;;;;;;;9.77;3.42;;;9.70;99.90;;;9.83;100.00;100599.09;5143220;28;20078;-79
2023/04/25 06:26:59;;;;;;;10.40;3.35;;;9.80;99.90;;;9.87;100.00;100598.38;5142745;28;20042;-77
2023/04/25 06:29:31;;;;;;;7.03;3.35;;;9.80;99.90;;;10.00;100.00;100592.75;5143068;28;20117;-78
2023/04/25 06:32:04;;;;;;;13.77;3.25;;;10.00;99.90;;;10.32;100.00;100598.19;5158157;28;20105;-77
2023/04/25 06:34:36;;;;;;;8.00;3.45;;;10.20;99.90;;;10.86;100.00;100582.50;5143176;28;20058;-79
2023/04/25 06:37:10;;;;;;;9.98;3.60;;;10.60;99.90;;;11.35;100.00;100589.16;5148474;28;20509;-83
2023/04/25 06:39:42;;;;;;;9.25;2.90;;;11.00;99.90;;;11.51;100.00;100586.13;5149999;28;20081;-83
2023/04/25 06:42:16;;;;;;;7.03;3.20;;;11.20;99.90;;;11.63;98.58;100585.59;5149310;28;20066;-83
2023/04/25 06:44:57;;;;;;;;;;;11.40;99.90;;;11.65;96.83;100586.50;5149823;28;20057;-82
2023/04/25 06:47:29;;;;;;;7.45;3.00;;;11.50;99.90;;;11.75;95.68;100590.25;5142917;28;19929;-83
2023/04/25 06:50:02;;;;;;;11.82;3.35;;;11.60;99.90;;;11.87;94.96;100595.84;5166699;28;20058;-84
2023/04/25 06:52:36;;;;;;;10.10;2.95;;;11.70;99.90;;;12.05;93.05;100601.53;5148336;28;20061;-84
2023/04/25 06:55:10;;;;;;;7.97;3.00;;;11.80;99.90;;;12.20;92.32;100593.22;5165135;28;20043;-83
2023/04/25 06:58:03;;;;;;;10.18;3.65;;;12.00;99.90;;;12.62;90.45;100592.47;5150655;28;20093;-83
2023/04/25 07:00:55;;;;;;;8.77;3.30;;;12.30;99.90;;;12.90;88.12;100591.34;5149275;28;20130;-84
2023/04/25 07:03:30;;;;;;;11.75;3.17;;;12.50;99.90;;;13.23;86.24;100602.56;5150609;28;20034;-83
2023/04/25 07:06:06;;;;;;;9.23;2.92;;;12.80;99.90;;;13.74;86.94;100603.59;5153508;28;20042;-83
2023/04/25 07:08:40;;;;;;;7.60;2.42;;;13.20;99.90;;;14.16;84.67;100606.13;5155494;28;20039;-81
2023/04/25 07:11:12;;;;;;;7.15;2.75;;;13.60;99.90;;;14.22;83.49;100605.34;5155383;28;20278;-83
2023/04/25 07:13:45;;;;;;;9.13;2.78;;;13.80;99.90;;;14.34;82.34;100606.44;5154953;28;20057;-83
2023/04/25 07:16:17;;;;;;;10.48;3.00;;;14.00;99.20;;;14.38;81.49;100616.09;5156716;28;20051;-82
2023/04/25 07:18:49;;;;;;;7.95;3.03;;;14.10;98.70;;;14.21;80.64;100614.91;5156089;28;20050;-82
2023/04/25 07:21:21;;;;;;;8.20;2.63;;;14.00;97.70;;;14.07;81.79;100621.66;5155115;28;20094;-79
2023/04/25 07:23:57;;;;;;;7.10;2.53;;;13.90;98.30;;;14.01;80.98;100624.16;5152397;28;20043;-81
2023/04/25 07:26:35;;;;;;;5.90;2.60;;;13.90;97.60;;;13.98;82.62;100627.63;5160133;28;20061;-82
2023/04/25 07:29:39;;;;;;;7.72;2.63;;;13.80;98.90;;;14.28;81.03;100626.38;5138382;28;20074;-82
2023/04/25 07:32:13;;;;;;;8.98;2.50;;;14.10;97.90;;;14.16;78.49;100624.47;5150547;28;20142;-84
2023/04/25 07:34:49;;;;;;;6.45;2.75;;;14.00;96.10;;;14.12;77.67;100622.63;5151250;28;20062;-84
2023/04/25 07:37:22;;;;;;;6.93;2.00;;;13.90;95.60;;;13.92;76.56;100626.63;5168241;28;20250;-81
2023/04/25 07:40:09;;;;;;;9.75;2.67;;;13.70;94.80;;;13.45;76.81;100627.47;5159825;28;20429;-83
2023/04/25 07:42:44;;;;;;;9.30;2.40;;;13.40;94.60;;;13.04;78.26;100626.59;5152745;28;20424;-82
2023/04/25 07:45:20;;;;;;;8.63;2.88;;;13.00;95.10;;;12.72;79.50;100629.34;5152854;28;20050;-86
2023/04/25 07:47:52;;;;;;;5.45;2.35;;;12.80;95.70;;;12.47;80.60;100630.47;5152606;28;20044;-85
2023/04/25 07:50:24;;;;;;;7.47;2.33;;;12.50;96.20;;;12.29;81.08;100631.75;5153377;28;20500;-85
2023/04/25 07:52:56;;;;;;;4.88;2.22;;;12.30;96.60;;;12.21;81.88;100639.41;5161859;28;20038;-86
2023/04/25 07:55:39;;;;;;;8.55;2.88;;;12.10;97.20;;;12.07;82.07;100639.06;5149935;28;20129;-86
2023/04/25 07:58:21;;;;;;;7.07;2.58;;;12.00;97.40;;;11.96;82.62;100643.09;5153792;28;21120;-85
2023/04/25 08:00:56;;;;;;;8.05;2.90;;;11.90;97.90;;;11.74;81.97;100645.94;5146869;28;20074;-85
2023/04/25 08:03:54;;;;;;;9.82;3.08;;;11.70;97.40;;;11.40;81.99;100651.06;5150554;28;20046;-85
2023/04/25 08:06:31;;;;;;;6.50;2.65;;;11.50;97.10;;;11.15;82.99;100659.03;5151091;28;20050;-87
2023/04/25 08:09:17;;;;;;;6.65;2.50;;;11.20;97.80;;;11.00;83.99;100662.03;5150972;28;20086;-86
2023/04/25 08:11:51;;;;;;;7.03;2.95;;;11.10;98.40;;;11.21;92.76;100674.84;5151068;28;20078;-81
2023/04/25 08:14:28;;;;;;;9.60;2.83;;;11.30;99.90;;;11.92;93.58;100664.75;5148041;28;20141;-80
2023/04/25 08:17:01;;;;;;;10.18;3.85;;;11.70;99.90;;;12.81;87.34;100674.88;5146001;28;20093;-87
2023/04/25 08:19:33;;;;;;;5.07;2.65;;;12.30;99.90;;;13.19;83.53;100681.88;5131760;28;20066;-85
2023/04/25 08:22:06;;;;;;;7.43;2.30;;;12.70;99.90;;;13.44;81.12;100677.22;5172260;28;20386;-84
2023/04/25 08:24:49;;;;;;;7.22;2.47;;;12.90;99.00;;;13.36;78.93;100684.00;5156977;28;20066;-85
2023/04/25 08:27:24;;;;;;;5.03;2.60;;;13.00;97.20;;;13.18;77.83;100697.53;5143681;28;20046;-86
2023/04/25 08:29:57;;;;;;;5.43;2.30;;;12.90;96.20;;;12.86;77.61;100699.41;5152811;28;20465;-85
2023/04/25 08:32:30;;;;;;;9.23;2.70;;;12.70;95.40;;;12.65;77.85;100708.50;5149223;28;20051;-85
2023/04/25 08:35:22;;;;;;;5.45;2.60;;;12.60;95.20;;;12.40;77.05;100707.00;5152737;28;20051;-85
2023/04/25 08:37:55;;;;;;;7.47;2.78;;;12.30;94.70;;;12.45;77.68;100713.22;5152055;28;20038;-85
2023/04/25 08:40:29;;;;;;;8.13;2.60;;;12.30;95.20;;;12.71;78.43;100716.50;5149100;28;20043;-85
2023/04/25 08:43:15;;;;;;;4.60;2.42;;;12.40;95.80;;;13.01;77.27;100716.34;5165416;28;20097;-85
2023/04/25 08:45:48;;;;;;;6.22;2.38;;;12.50;95.60;;;12.98;76.13;100720.63;5152936;28;20107;-85
2023/04/25 08:48:33;;;;;;;4.47;2.20;;;12.60;94.90;;;12.80;76.22;100723.69;5159806;28;20043;-84
2023/04/25 08:51:09;;;;;;;7.40;2.50;;;12.50;94.50;;;12.64;78.34;100730.25;5147036;28;20531;-83
2023/04/25 08:53:42;;;;;;;8.30;2.20;;;12.50;96.00;;;12.60;79.02;100728.41;5148072;28;20046;-86
2023/04/25 08:56:17;;;;;;;6.47;2.00;;;12.40;95.80;;;12.41;78.32;100727.06;5172045;28;20089;-86
2023/04/25 08:58:51;;;;;;;5.30;2.08;;;12.30;95.20;;;12.30;77.43;100738.94;5153164;28;20556;-88
2023/04/25 09:01:24;;;;;;;3.42;1.60;;;12.30;94.40;;;12.22;76.90;100738.75;5151858;28;20138;-88
2023/04/25 09:03:59;;;;;;;3.58;1.50;;;12.20;94.10;;;12.26;76.61;100746.66;5151283;28;20114;-88
2023/04/25 09:06:32;;;;;;;6.97;2.10;;;12.10;94.00;;;12.22;76.36;100750.94;5150165;28;20045;-84
2023/04/25 09:09:06;;;;;;;5.38;2.20;;;12.10;93.80;;;12.02;76.21;100757.34;5148261;28;20034;-83
2023/04/25 09:11:39;;;;;;;6.88;2.42;;;12.00;93.60;;;11.79;76.69;100759.22;5150746;28;20047;-84
2023/04/25 09:14:20;;;;;;;6.75;2.42;;;11.80;93.60;;;11.58;77.50;100762.09;5129922;28;20078;-86
2023/04/25 09:17:19;;;;;;;5.38;2.33;;;11.70;94.10;;;11.39;78.29;100773.69;5146342;28;20058;-85
2023/04/25 09:20:08;;;;;;;7.15;2.20;;;11.50;94.50;;;11.22;78.81;100772.31;5149608;28;20433;-85
2023/04/25 09:22:41;;;;;;;5.35;2.20;;;11.30;94.90;;;11.11;79.71;100772.84;5156052;28;20039;-84
2023/04/25 09:25:14;;;;;;;7.15;2.30;;;11.20;95.20;;;11.04;79.54;100786.53;5164721;28;20039;-85
2023/04/25 09:27:54;;;;;;;5.47;2.10;;;11.10;95.20;;;10.98;79.70;100781.09;5168309;28;20047;-85
2023/04/25 09:30:34;;;;;;;5.90;2.10;;;11.00;95.50;;;10.93;80.12;100782.66;5154498;28;20031;-85
2023/04/25 09:33:30;;;;;;;3.80;1.80;;;11.00;95.70;;;10.91;80.42;100784.34;5170099;28;20074;-87
2023/04/25 09:36:05;;;;;;;4.55;1.55;;;10.90;95.90;;;10.87;79.79;100788.56;5155045;28;20109;-84
2023/04/25 09:38:49;;;;;;;4.57;1.80;;;10.90;95.60;;;10.85;79.30;100794.56;5158004;28;20050;-83
2023/04/25 09:41:26;;;;;;;4.80;1.50;;;10.90;95.30;;;10.81;79.28;100798.78;5147441;28;20046;-86
2023/04/25 09:44:02;;;;;;;5.53;1.52;;;10.80;95.30;;;10.83;79.47;100798.84;5155677;28;20509;-85
2023/04/25 09:46:39;;;;;;;10.45;2.05;;;10.80;95.50;;;10.81;80.67;100792.69;5148199;28;20492;-85
2023/04/25 09:49:22;;;;;;;4.32;1.65;;;10.90;96.10;;;10.82;80.62;100791.84;5163747;28;20050;-86
2023/04/25 09:52:17;;;;;;;3.25;1.70;;;10.80;96.10;;;10.90;81.34;100797.34;5147324;28;20035;-86
2023/04/25 09:54:59;;;;;;;4.90;2.42;;;10.90;96.60;;;11.00;81.78;100799.41;5147054;28;20513;-86
2023/04/25 09:57:39;;;;;;;7.50;1.83;;;11.00;96.90;;;11.08;82.14;100804.06;5140109;28;20102;-86
2023/04/25 10:00:14;;;;;;;5.00;2.00;;;11.00;97.10;;;11.14;81.84;100793.78;5149029;28;20142;-87
2023/04/25 10:02:51;;;;;;;7.55;2.20;;;11.10;97.10;;;11.24;81.49;100800.22;5151895;28;20054;-85
2023/04/25 10:05:54;;;;;;;4.30;1.73;;;11.20;97.00;;;11.41;81.47;100809.47;5152324;28;20609;-84
2023/04/25 10:08:30;;;;;;;5.82;2.17;;;11.30;97.10;;;11.50;83.01;100807.97;5156887;28;20046;-84
2023/04/25 10:11:05;;;;;;;5.80;1.65;;;11.40;97.70;;;11.54;81.66;100805.53;5149083;28;20050;-84
2023/04/25 10:13:38;;;;;;;7.25;1.95;;;11.40;97.10;;;11.54;80.66;100809.81;5149297;28;20039;-85
2023/04/25 10:16:10;;;;;;;5.60;1.63;;;11.50;96.40;;;11.52;78.96;100815.00;5149887;28;20043;-84
2023/04/25 10:18:43;;;;;;;2.45;2.05;;;11.40;95.50;;;11.49;77.98;100819.25;5150106;28;20038;-84
2023/04/25 10:21:16;;;;;;;3.53;2.05;;;11.40;95.10;;;11.55;77.62;100822.94;5149737;28;20046;-85
2023/04/25 10:23:49;;;;;;;2.65;1.63;;;11.40;94.90;;;11.72;77.06;100819.97;5150670;28;20097;-84
2023/04/25 10:26:21;;;;;;;4.28;1.77;;;11.50;94.60;;;11.80;76.61;100835.03;5151211;28;20043;-85
2023/04/25 10:28:58;;;;;;;4.22;1.50;;;11.60;94.30;;;11.67;75.16;100830.25;5151853;28;20477;-86
2023/04/25 10:31:31;;;;;;;3.58;1.77;;;11.60;93.30;;;11.51;76.52;100825.41;5150205;28;20051;-84
2023/04/25 10:34:06;;;;;;;5.97;1.60;;;11.50;93.60;;;11.34;76.18;100835.28;5152355;28;20580;-85
2023/04/25 10:36:39;;;;;;;5.70;1.73;;;11.40;93.20;;;11.21;76.17;100840.97;5162957;28;20023;-84
2023/04/25 10:39:11;;;;;;;3.97;1.55;;;11.30;93.20;;;11.10;76.33;100836.28;5153283;28;20043;-85
2023/04/25 10:41:48;;;;;;;5.78;1.73;;;11.20;93.30;;;11.05;76.86;100840.47;5151215;28;20042;-82
2023/04/25 10:44:20;;;;;;;4.07;1.17;;;11.10;93.80;;;11.03;77.30;100839.53;5149435;28;20449;-85
2023/04/25 10:46:53;;;;;;;7.60;1.83;;;11.10;94.00;;;10.95;77.44;100845.31;5151530;28;20043;-85
2023/04/25 10:49:37;;;;;;;3.08;1.48;;;11.00;94.00;;;10.87;77.70;100845.94;5150844;28;20077;-84
2023/04/25 10:52:14;;;;;;;9.02;1.95;;;10.90;94.00;;;10.87;78.31;100842.44;5151258;28;20051;-83
2023/04/25 10:54:53;;;;;;;8.27;2.08;;;10.90;94.50;;;10.84;79.63;100847.56;5139606;28;20819;-84